Time;durP1;ratioP1;P1;durP2;ratioP2;P2;SDS_P1;SDS_P2;PMS_P1;PMS_P2;Temp;Humidity;BMP_temperature;BMP_pressure;BME280_temperature;BME280_humidity;BME280_pressure;Samples;Min_cycle;Max_cycle;Signal;HPM_P1;HPM_P2
2022/11/12 00:02:39;;;;;;;3.95;2.20;;;6.00;95.10;;;;;;4956169;28;20045;-85
2022/11/12 00:05:26;;;;;;;4.80;2.60;;;5.90;95.10;;;;;;4942043;28;20128;-87
2022/11/12 00:12:12;;;;;;;4.95;2.53;;;5.90;95.10;;;;;;4958403;28;20059;-82
2022/11/12 00:14:58;;;;;;;5.82;2.50;;;5.80;95.10;;;;;;4943363;29;20243;-88
2022/11/12 00:17:46;;;;;;;5.03;2.28;;;5.80;95.10;;;;;;4949417;28;20058;-88
2022/11/12 00:20:32;;;;;;;3.65;2.25;;;5.90;95.20;;;;;;4963274;28;20041;-87
2022/11/12 00:23:18;;;;;;;3.70;2.15;;;5.80;95.20;;;;;;4958008;28;20061;-88
2022/11/12 00:26:03;;;;;;;4.40;2.53;;;5.80;95.20;;;;;;4949260;28;20058;-85
2022/11/12 00:28:49;;;;;;;4.47;2.55;;;5.70;95.20;;;;;;4930046;29;20073;-83
2022/11/12 00:31:34;;;;;;;4.53;2.20;;;5.70;95.20;;;;;;4932694;28;20141;-85
2022/11/12 00:34:19;;;;;;;4.30;2.15;;;5.70;95.20;;;;;;4961947;28;20407;-84
2022/11/12 00:37:05;;;;;;;3.67;1.80;;;5.70;95.20;;;;;;4959732;28;20094;-83
2022/11/12 00:39:51;;;;;;;3.75;1.50;;;5.70;95.20;;;;;;4966285;28;20093;-82
2022/11/12 00:42:37;;;;;;;5.13;2.15;;;5.70;95.20;;;;;;4948203;28;20093;-81
2022/11/12 00:45:25;;;;;;;4.07;2.00;;;5.60;95.20;;;;;;4947933;28;20538;-82
2022/11/12 00:48:11;;;;;;;4.10;2.17;;;5.60;95.20;;;;;;4961894;28;20057;-83
2022/11/12 00:51:05;;;;;;;4.38;2.10;;;5.60;95.20;;;;;;4937434;28;20170;-83
2022/11/12 00:53:50;;;;;;;3.28;1.58;;;5.60;95.20;;;;;;4949726;28;20463;-83
2022/11/12 00:56:36;;;;;;;3.72;1.83;;;5.60;95.30;;;;;;4951125;28;20094;-82
2022/11/12 00:59:22;;;;;;;3.30;1.80;;;5.50;95.30;;;;;;4948153;28;20062;-83
2022/11/12 01:02:07;;;;;;;4.57;2.40;;;5.50;95.30;;;;;;4934064;28;20061;-82
2022/11/12 01:04:53;;;;;;;4.45;2.40;;;5.50;95.30;;;;;;4943609;28;20057;-82
2022/11/12 01:07:39;;;;;;;3.88;2.05;;;5.50;95.30;;;;;;4972345;28;20065;-82
2022/11/12 01:10:24;;;;;;;5.95;2.42;;;5.50;95.30;;;;;;4961532;28;20133;-82
2022/11/12 01:13:10;;;;;;;3.60;2.53;;;5.40;95.30;;;;;;4960659;28;20101;-82
2022/11/12 01:15:57;;;;;;;5.22;2.65;;;5.40;95.30;;;;;;4948284;28;20097;-83
2022/11/12 01:18:43;;;;;;;5.13;2.45;;;5.40;95.30;;;;;;4938266;29;20055;-83
2022/11/12 01:21:30;;;;;;;3.70;2.22;;;5.40;95.30;;;;;;4945789;28;20057;-84
2022/11/12 01:24:16;;;;;;;4.65;2.42;;;5.40;95.30;;;;;;4966456;28;20066;-82
2022/11/12 01:27:02;;;;;;;4.97;3.08;;;5.40;95.30;;;;;;4948989;28;20062;-81
2022/11/12 01:29:47;;;;;;;4.28;2.38;;;5.40;95.30;;;;;;4947449;28;20459;-83
2022/11/12 01:32:36;;;;;;;3.70;2.00;;;5.40;95.30;;;;;;4933791;28;20128;-83
2022/11/12 01:35:24;;;;;;;4.45;2.13;;;5.40;95.30;;;;;;4961058;28;20054;-83
2022/11/12 01:38:10;;;;;;;4.78;2.67;;;5.40;95.30;;;;;;4951812;28;20062;-84
2022/11/12 01:40:55;;;;;;;5.25;2.20;;;5.30;95.30;;;;;;4933844;28;20105;-84
2022/11/12 01:43:40;;;;;;;3.25;2.08;;;5.30;95.30;;;;;;4947095;28;20061;-83
2022/11/12 01:46:28;;;;;;;2.75;1.52;;;5.30;95.30;;;;;;4960996;28;20062;-83
2022/11/12 01:49:20;;;;;;;5.25;2.00;;;5.30;95.30;;;;;;4960510;28;20170;-82
2022/11/12 01:52:40;;;;;;;3.87;2.10;;;5.30;95.30;;;;;;4974041;28;20132;-83
2022/11/12 01:55:31;;;;;;;3.00;1.50;;;5.30;95.30;;;;;;4972776;28;20305;-84
2022/11/12 01:58:20;;;;;;;2.53;1.48;;;5.20;95.30;;;;;;4960531;28;20137;-83
2022/11/12 02:01:05;;;;;;;2.95;1.58;;;5.20;95.30;;;;;;4974996;28;20529;-83
2022/11/12 02:03:51;;;;;;;3.67;2.03;;;5.20;95.30;;;;;;4960649;28;20062;-83
2022/11/12 02:06:41;;;;;;;3.50;1.52;;;5.20;95.30;;;;;;4923470;28;20173;-83
2022/11/12 02:09:28;;;;;;;4.68;2.17;;;5.20;95.30;;;;;;4957811;28;20129;-84
2022/11/12 02:13:56;;;;;;;2.53;1.40;;;5.20;95.30;;;;;;4974945;28;20137;-84
2022/11/12 02:15:19;;;;;;;3.33;1.60;;;5.20;95.30;;;;;;4933011;29;20519;-84
2022/11/12 02:18:05;;;;;;;3.63;1.80;;;5.10;95.30;;;;;;4959449;28;20400;-84
2022/11/12 02:20:57;;;;;;;3.83;1.63;;;5.10;95.30;;;;;;4956409;29;20046;-84
2022/11/12 02:23:42;;;;;;;3.80;2.20;;;5.10;95.40;;;;;;4962507;28;20140;-83
2022/11/12 02:26:31;;;;;;;3.42;1.88;;;5.10;95.30;;;;;;4959981;28;20053;-80
2022/11/12 02:29:17;;;;;;;4.63;1.73;;;5.10;95.30;;;;;;4973762;28;20069;-83
2022/11/12 02:32:03;;;;;;;3.00;1.67;;;5.10;95.40;;;;;;4970271;28;20046;-83
2022/11/12 02:34:48;;;;;;;3.28;1.52;;;5.00;95.30;;;;;;4960166;28;20130;-82
2022/11/12 02:37:33;;;;;;;3.33;1.52;;;5.00;95.30;;;;;;4960642;28;20049;-82
2022/11/12 02:40:19;;;;;;;3.40;1.73;;;5.00;95.30;;;;;;4959965;28;20427;-83
2022/11/12 02:43:05;;;;;;;3.03;1.55;;;5.00;95.30;;;;;;4959964;28;20057;-83
2022/11/12 02:45:50;;;;;;;4.75;1.70;;;5.00;95.30;;;;;;4973403;28;20062;-83
2022/11/12 02:48:38;;;;;;;3.60;1.75;;;5.00;95.40;;;;;;4931597;28;20204;-83
2022/11/12 02:51:24;;;;;;;2.58;1.42;;;5.00;95.30;;;;;;4959733;28;20098;-84
2022/11/12 02:54:09;;;;;;;3.15;1.75;;;5.00;95.30;;;;;;4956617;28;20054;-83
2022/11/12 02:56:55;;;;;;;3.50;1.52;;;5.00;95.30;;;;;;4946204;28;20057;-83
2022/11/12 02:59:40;;;;;;;2.58;1.20;;;4.90;95.30;;;;;;4946337;28;20054;-82
2022/11/12 03:02:26;;;;;;;3.40;1.70;;;4.90;95.30;;;;;;4975704;28;20136;-83
2022/11/12 03:05:13;;;;;;;3.67;1.65;;;4.90;95.30;;;;;;4959598;28;20077;-83
2022/11/12 03:08:00;;;;;;;3.47;1.60;;;4.90;95.30;;;;;;4945382;28;20526;-84
2022/11/12 03:10:46;;;;;;;3.22;1.67;;;4.80;95.30;;;;;;4959499;28;20061;-83
2022/11/12 03:13:31;;;;;;;2.95;1.48;;;4.90;95.30;;;;;;4941732;28;20169;-83
2022/11/12 03:16:17;;;;;;;3.45;1.73;;;4.80;95.40;;;;;;4932953;28;20054;-83
2022/11/12 03:19:03;;;;;;;2.97;1.60;;;4.80;95.30;;;;;;4946272;28;20058;-82
2022/11/12 03:21:48;;;;;;;2.60;1.20;;;4.80;95.30;;;;;;4946571;28;20455;-82
2022/11/12 03:24:33;;;;;;;3.97;1.60;;;4.80;95.30;;;;;;4945958;28;20538;-83
2022/11/12 03:27:19;;;;;;;4.50;1.88;;;4.80;95.30;;;;;;4963484;28;20054;-84
2022/11/12 03:30:07;;;;;;;2.72;1.45;;;4.80;95.30;;;;;;4986565;28;20399;-83
2022/11/12 03:32:53;;;;;;;3.05;1.35;;;4.80;95.30;;;;;;4959110;28;20173;-84
2022/11/12 03:35:39;;;;;;;4.28;1.77;;;4.80;95.30;;;;;;4946048;28;20061;-83
2022/11/12 03:38:25;;;;;;;4.45;1.42;;;4.70;95.30;;;;;;4945917;28;20116;-83
2022/11/12 03:41:11;;;;;;;3.30;1.27;;;4.70;95.30;;;;;;4959430;28;20049;-84
2022/11/12 03:43:56;;;;;;;3.50;1.52;;;4.70;95.30;;;;;;4934729;28;20144;-82
2022/11/12 03:46:42;;;;;;;2.92;1.42;;;4.70;95.30;;;;;;4962439;28;20065;-84
2022/11/12 03:49:29;;;;;;;3.33;1.75;;;4.70;95.30;;;;;;4963047;28;20158;-84
2022/11/12 03:52:14;;;;;;;3.33;1.52;;;4.70;95.30;;;;;;4955544;28;20053;-84
2022/11/12 03:55:00;;;;;;;4.50;1.67;;;4.70;95.30;;;;;;4949149;28;20415;-83
2022/11/12 03:57:50;;;;;;;4.65;1.45;;;4.70;95.30;;;;;;4948894;28;20170;-83
2022/11/12 04:00:36;;;;;;;3.80;1.80;;;4.70;95.30;;;;;;4962242;28;20113;-83
2022/11/12 04:03:25;;;;;;;3.42;1.63;;;4.70;95.30;;;;;;4962508;28;20106;-84
2022/11/12 04:09:14;;;;;;;3.15;1.50;;;4.60;95.30;;;;;;4945893;29;20611;-82
2022/11/12 04:13:26;;;;;;;2.90;1.13;;;4.60;95.30;;;;;;4952820;28;20082;-83
2022/11/12 04:15:07;;;;;;;3.03;1.17;;;4.60;95.30;;;;;;4961387;28;20207;-83
2022/11/12 04:24:00;;;;;;;2.63;1.20;;;4.50;95.30;;;;;;4966912;28;20053;-83
2022/11/12 04:26:46;;;;;;;2.28;1.13;;;4.50;95.30;;;;;;4975058;28;20137;-84
2022/11/12 04:32:44;;;;;;;3.30;1.05;;;4.50;95.30;;;;;;4976387;28;20053;-83
2022/11/12 04:35:30;;;;;;;3.28;1.38;;;4.50;95.30;;;;;;4963089;28;20109;-83
2022/11/12 04:38:15;;;;;;;2.25;0.93;;;4.50;95.30;;;;;;4944318;28;20054;-83
2022/11/12 04:47:08;;;;;;;3.45;1.38;;;4.40;95.30;;;;;;4963903;28;20062;-84
2022/11/12 04:49:54;;;;;;;2.00;1.20;;;4.40;95.30;;;;;;4961830;28;20050;-83
2022/11/12 04:52:39;;;;;;;3.05;1.35;;;4.40;95.30;;;;;;4941951;28;20070;-83
2022/11/12 04:55:25;;;;;;;2.65;1.38;;;4.40;95.30;;;;;;4945165;28;20105;-84
2022/11/12 04:58:10;;;;;;;3.33;1.33;;;4.40;95.30;;;;;;4949880;28;20057;-83
2022/11/12 05:00:55;;;;;;;3.60;1.42;;;4.40;95.30;;;;;;4961554;28;20055;-82
2022/11/12 05:03:44;;;;;;;3.42;1.35;;;4.40;95.30;;;;;;4961256;28;20589;-84
2022/11/12 05:09:33;;;;;;;3.08;1.15;;;4.40;95.30;;;;;;4975548;28;20152;-83
2022/11/12 05:12:18;;;;;;;2.15;0.93;;;4.40;95.30;;;;;;4961294;28;20101;-83
2022/11/12 05:15:05;;;;;;;2.40;1.33;;;4.40;95.30;;;;;;4991767;28;20049;-84
2022/11/12 05:17:51;;;;;;;2.60;1.52;;;4.30;95.30;;;;;;4980591;28;20487;-83
2022/11/12 05:20:36;;;;;;;3.53;1.33;;;4.30;95.30;;;;;;4966930;28;20146;-83
2022/11/12 05:23:25;;;;;;;2.97;1.30;;;4.30;95.30;;;;;;4966621;28;20061;-83
2022/11/12 05:26:10;;;;;;;2.55;1.30;;;4.30;95.30;;;;;;4953781;28;20065;-84
2022/11/12 05:28:55;;;;;;;2.75;1.23;;;4.30;95.30;;;;;;4953047;28;20521;-83
2022/11/12 05:31:41;;;;;;;2.03;1.08;;;4.30;95.30;;;;;;4966729;28;20066;-83
2022/11/12 05:34:27;;;;;;;2.30;1.27;;;4.30;95.30;;;;;;4979823;28;20097;-83
2022/11/12 05:37:13;;;;;;;2.83;1.00;;;4.30;95.60;;;;;;5003851;28;20049;-83
2022/11/12 05:39:58;;;;;;;3.00;1.20;;;4.30;95.30;;;;;;4974613;28;20147;-82
2022/11/12 05:42:44;;;;;;;2.92;1.23;;;4.30;95.30;;;;;;4966227;28;20132;-83
2022/11/12 05:45:29;;;;;;;2.90;1.38;;;4.30;95.30;;;;;;4980029;28;20450;-83
2022/11/12 05:48:15;;;;;;;3.42;1.20;;;4.30;95.30;;;;;;4952728;28;20053;-81
2022/11/12 05:51:08;;;;;;;3.53;1.45;;;4.20;95.30;;;;;;4968306;28;20097;-83
2022/11/12 05:53:59;;;;;;;3.22;1.00;;;4.20;95.30;;;;;;4979981;28;20188;-82
2022/11/12 05:56:45;;;;;;;2.97;1.42;;;4.20;95.30;;;;;;4979542;28;20058;-84
2022/11/12 05:59:30;;;;;;;3.25;1.42;;;4.20;95.30;;;;;;4979622;28;20053;-84
2022/11/12 06:02:16;;;;;;;2.40;1.20;;;4.20;95.30;;;;;;4966002;28;20057;-83
2022/11/12 06:05:02;;;;;;;3.08;1.33;;;4.20;95.30;;;;;;4979400;28;20062;-83
2022/11/12 06:07:47;;;;;;;3.15;1.42;;;4.20;95.30;;;;;;4978699;28;20135;-83
2022/11/12 06:10:33;;;;;;;2.53;1.23;;;4.20;95.30;;;;;;4948037;28;20050;-83
2022/11/12 06:13:20;;;;;;;2.10;1.10;;;4.20;95.30;;;;;;4960198;28;20042;-84
2022/11/12 06:16:08;;;;;;;3.05;1.40;;;4.20;95.30;;;;;;4990364;28;20565;-83
2022/11/12 06:18:54;;;;;;;3.30;1.35;;;4.20;95.30;;;;;;4970455;28;20519;-83
2022/11/12 06:21:39;;;;;;;3.13;1.52;;;4.20;95.30;;;;;;4978512;28;20065;-84
2022/11/12 06:24:25;;;;;;;4.55;1.50;;;4.20;95.30;;;;;;4960399;28;20056;-82
2022/11/12 06:27:18;;;;;;;2.97;1.38;;;4.20;95.30;;;;;;4970642;28;20053;-83
2022/11/12 06:30:05;;;;;;;3.63;1.30;;;4.20;95.30;;;;;;4965246;28;20135;-83
2022/11/12 06:32:51;;;;;;;3.42;1.48;;;4.10;95.30;;;;;;4978749;28;20200;-83
2022/11/12 06:35:37;;;;;;;1.90;1.08;;;4.20;95.30;;;;;;4961215;28;20077;-81
2022/11/12 06:38:36;;;;;;;2.95;1.58;;;4.10;95.30;;;;;;4964752;28;20049;-83
2022/11/12 06:41:21;;;;;;;2.47;1.08;;;4.20;95.30;;;;;;4979167;28;20492;-84
2022/11/12 06:44:07;;;;;;;2.75;1.45;;;4.20;95.30;;;;;;4965636;28;20073;-83
2022/11/12 06:46:53;;;;;;;2.35;1.10;;;4.10;95.30;;;;;;4976674;28;20053;-82
2022/11/12 06:49:38;;;;;;;3.25;1.80;;;4.20;95.30;;;;;;4979482;28;20144;-83
2022/11/12 06:52:24;;;;;;;2.75;1.13;;;4.10;95.30;;;;;;4950673;28;20053;-83
2022/11/12 06:55:09;;;;;;;2.72;1.27;;;4.10;95.30;;;;;;4965504;28;20074;-83
2022/11/12 06:57:55;;;;;;;3.42;1.45;;;4.10;95.30;;;;;;4952131;28;20054;-82
2022/11/12 07:00:41;;;;;;;2.50;1.35;;;4.10;95.30;;;;;;4978819;28;20506;-83
2022/11/12 07:03:26;;;;;;;3.42;1.38;;;4.10;95.30;;;;;;4965176;28;20057;-82
2022/11/12 07:06:14;;;;;;;3.00;1.30;;;4.10;95.30;;;;;;4980013;28;20446;-83
2022/11/12 07:08:59;;;;;;;2.90;1.17;;;4.20;95.30;;;;;;4978280;28;20050;-83
2022/11/12 07:11:45;;;;;;;2.33;1.20;;;4.20;95.30;;;;;;4965063;28;20057;-83
2022/11/12 07:14:31;;;;;;;3.65;1.48;;;4.20;95.30;;;;;;4963260;28;20183;-83
2022/11/12 07:17:16;;;;;;;3.38;1.10;;;4.20;95.20;;;;;;4966904;28;20128;-83
2022/11/12 07:20:02;;;;;;;3.10;1.70;;;4.20;95.20;;;;;;4955123;28;20159;-82
2022/11/12 07:22:48;;;;;;;3.80;1.42;;;4.20;95.20;;;;;;4982666;28;20049;-82
2022/11/12 07:25:34;;;;;;;3.13;1.52;;;4.20;95.20;;;;;;4955279;28;20073;-83
2022/11/12 07:28:20;;;;;;;2.25;1.20;;;4.30;95.30;;;;;;4997012;28;20144;-82
2022/11/12 07:31:10;;;;;;;3.33;1.67;;;4.30;95.20;;;;;;4982606;28;20101;-85
2022/11/12 07:33:55;;;;;;;2.55;1.15;;;4.30;95.20;;;;;;4982690;28;20050;-82
2022/11/12 07:36:41;;;;;;;1.77;0.88;;;4.30;95.20;;;;;;4996837;28;20101;-82
2022/11/12 07:39:28;;;;;;;2.33;1.65;;;4.40;95.20;;;;;;4969081;28;20101;-84
2022/11/12 07:42:14;;;;;;;3.00;1.10;;;4.40;95.10;;;;;;4969202;28;20065;-83
2022/11/12 07:45:00;;;;;;;2.25;0.90;;;4.40;95.10;;;;;;4992862;28;20060;-83
2022/11/12 07:47:45;;;;;;;2.08;1.17;;;4.40;95.10;;;;;;4991227;28;20109;-81
2022/11/12 07:50:31;;;;;;;2.63;1.27;;;4.40;95.10;;;;;;4954813;28;20054;-81
2022/11/12 07:53:16;;;;;;;2.30;1.27;;;4.50;95.10;;;;;;4981662;28;20049;-82
2022/11/12 07:56:03;;;;;;;2.10;1.10;;;4.50;95.10;;;;;;4953463;28;20104;-82
2022/11/12 07:58:49;;;;;;;2.97;1.23;;;4.60;95.10;;;;;;4968453;28;20398;-82
2022/11/12 08:01:37;;;;;;;2.20;1.08;;;4.60;95.00;;;;;;4970371;28;20057;-83
2022/11/12 08:04:23;;;;;;;2.53;1.00;;;4.60;95.00;;;;;;4996272;28;20173;-83
2022/11/12 08:07:09;;;;;;;3.28;1.33;;;4.60;95.00;;;;;;4979608;28;20117;-82
2022/11/12 08:09:54;;;;;;;3.33;1.40;;;4.70;95.00;;;;;;4981565;28;20057;-82
2022/11/12 08:12:40;;;;;;;3.35;1.60;;;4.70;95.00;;;;;;4950406;28;20061;-81
2022/11/12 08:15:26;;;;;;;2.58;1.30;;;4.80;95.00;;;;;;4971790;28;20105;-82
2022/11/12 08:18:12;;;;;;;2.95;1.15;;;4.80;95.00;;;;;;4968122;28;20132;-81
2022/11/12 08:21:04;;;;;;;2.35;1.33;;;4.90;94.90;;;;;;4967657;28;20189;-82
2022/11/12 08:23:50;;;;;;;2.70;1.05;;;4.90;94.90;;;;;;4985751;28;20124;-82
2022/11/12 08:26:35;;;;;;;2.50;1.10;;;5.00;94.90;;;;;;4981182;28;20057;-82
2022/11/12 08:29:22;;;;;;;2.47;1.25;;;5.00;94.90;;;;;;4967326;28;20411;-82
2022/11/12 08:32:10;;;;;;;2.33;1.08;;;5.00;94.80;;;;;;4968592;28;20057;-82
2022/11/12 08:34:55;;;;;;;2.70;1.23;;;5.10;94.80;;;;;;4995727;28;20049;-82
2022/11/12 08:37:41;;;;;;;2.42;1.20;;;5.10;94.80;;;;;;4981134;28;20053;-82
2022/11/12 08:40:28;;;;;;;2.42;1.30;;;5.20;94.80;;;;;;4961783;28;20411;-83
2022/11/12 08:43:13;;;;;;;2.38;1.20;;;5.20;94.70;;;;;;4976567;28;20128;-82
2022/11/12 08:46:00;;;;;;;2.50;1.08;;;5.40;94.70;;;;;;4963307;28;20507;-82
2022/11/12 08:48:45;;;;;;;3.00;1.42;;;5.50;94.70;;;;;;4995516;28;20049;-82
2022/11/12 08:51:31;;;;;;;2.05;0.88;;;5.60;94.60;;;;;;4962256;28;20084;-82
2022/11/12 08:54:17;;;;;;;2.22;1.10;;;5.60;94.50;;;;;;4955572;28;20057;-83
2022/11/12 08:57:03;;;;;;;1.90;0.90;;;5.70;94.50;;;;;;4974088;28;20173;-82
2022/11/12 08:59:48;;;;;;;2.05;0.93;;;5.80;94.50;;;;;;4967287;28;20056;-83
2022/11/12 09:02:33;;;;;;;2.85;1.17;;;5.90;94.40;;;;;;4967228;28;20057;-82
2022/11/12 09:05:19;;;;;;;2.75;1.05;;;6.00;94.40;;;;;;4948001;28;20423;-82
2022/11/12 09:08:09;;;;;;;3.15;1.70;;;6.10;94.40;;;;;;4980813;28;20414;-84
2022/11/12 09:10:57;;;;;;;2.28;0.95;;;6.20;94.30;;;;;;4980220;28;20060;-82
2022/11/12 09:13:43;;;;;;;2.45;1.20;;;6.20;94.30;;;;;;4957312;28;20080;-85
2022/11/12 09:16:29;;;;;;;2.88;1.35;;;6.30;94.20;;;;;;4980548;28;20053;-83
2022/11/12 09:19:14;;;;;;;2.53;1.30;;;6.40;94.20;;;;;;4995251;28;20128;-83
2022/11/12 09:22:00;;;;;;;2.50;1.00;;;6.40;94.20;;;;;;4969161;28;20065;-84
2022/11/12 09:24:46;;;;;;;3.70;1.23;;;6.50;94.20;;;;;;4980306;28;20057;-83
2022/11/12 09:27:31;;;;;;;2.13;1.10;;;6.60;94.50;;;;;;4953143;28;20136;-83
2022/11/12 09:30:17;;;;;;;1.83;1.02;;;6.60;94.20;;;;;;4953744;28;20059;-83
2022/11/12 09:33:03;;;;;;;2.38;1.08;;;6.70;94.20;;;;;;4963028;28;20057;-83
2022/11/12 09:35:50;;;;;;;3.78;1.30;;;6.80;94.20;;;;;;4960687;28;20515;-83
2022/11/12 09:38:35;;;;;;;3.35;1.42;;;6.90;94.20;;;;;;4993744;28;20518;-83
2022/11/12 09:41:41;;;;;;;1.88;1.25;;;6.90;94.10;;;;;;4967249;28;20053;-82
2022/11/12 09:44:27;;;;;;;2.72;1.35;;;7.00;94.10;;;;;;4979872;28;20056;-82
2022/11/12 09:47:26;;;;;;;3.42;1.08;;;7.10;94.10;;;;;;4955835;28;20105;-83
2022/11/12 09:50:35;;;;;;;2.65;1.10;;;7.10;94.10;;;;;;4994201;28;20136;-82
2022/11/12 09:53:45;;;;;;;2.28;1.20;;;7.20;94.10;;;;;;4979536;28;20576;-83
2022/11/12 09:56:31;;;;;;;1.75;0.90;;;7.20;94.00;;;;;;4981993;28;20180;-85
2022/11/12 09:59:17;;;;;;;2.15;1.20;;;7.30;94.10;;;;;;4993051;28;20136;-83
2022/11/12 10:02:29;;;;;;;2.17;1.00;;;7.40;94.10;;;;;;4979879;28;20057;-84
2022/11/12 10:05:35;;;;;;;3.45;1.30;;;7.50;94.00;;;;;;4980261;28;20089;-83
2022/11/12 10:08:51;;;;;;;2.17;1.17;;;7.50;94.00;;;;;;4967793;28;20053;-83
2022/11/12 10:12:30;;;;;;;2.47;0.95;;;7.60;94.00;;;;;;4980256;28;20068;-82
2022/11/12 10:18:37;;;;;;;1.73;1.17;;;7.70;93.90;;;;;;4982718;28;20053;-86
2022/11/12 10:21:40;;;;;;;1.88;0.90;;;7.80;93.90;;;;;;4980031;28;20509;-82
2022/11/12 10:24:33;;;;;;;2.30;0.98;;;7.90;93.90;;;;;;4979394;28;20177;-82
2022/11/12 10:27:27;;;;;;;2.72;1.00;;;7.90;93.80;;;;;;4993993;28;20061;-82
2022/11/12 10:30:18;;;;;;;3.28;1.75;;;8.10;93.80;;;;;;4965687;28;20181;-81
2022/11/12 10:33:03;;;;;;;3.95;1.70;;;8.20;93.70;;;;;;4993963;28;20057;-83
2022/11/12 10:35:52;;;;;;;2.88;1.27;;;8.30;93.70;;;;;;4962686;28;20045;-85
2022/11/12 10:39:17;;;;;;;2.95;1.50;;;8.30;93.60;;;;;;4979727;28;20053;-85
2022/11/12 10:42:26;;;;;;;2.67;1.13;;;8.40;93.60;;;;;;4979287;28;20606;-82
2022/11/12 10:45:19;;;;;;;3.17;1.60;;;8.50;93.60;;;;;;4979728;28;20077;-88
2022/11/12 10:48:27;;;;;;;2.30;1.42;;;8.50;93.60;;;;;;5007595;28;20052;-87
2022/11/12 10:51:34;;;;;;;1.48;0.80;;;8.60;93.50;;;;;;4979785;28;20136;-87
2022/11/12 10:54:35;;;;;;;3.00;0.90;;;8.70;93.50;;;;;;4991836;28;20053;-89
2022/11/12 10:57:25;;;;;;;2.05;1.00;;;8.80;93.80;;;;;;4984661;28;20053;-88
2022/11/12 11:00:11;;;;;;;3.42;1.60;;;8.80;93.50;;;;;;4970323;28;20061;-87
2022/11/12 11:02:58;;;;;;;3.35;1.58;;;9.00;93.40;;;;;;4984083;28;20053;-93
2022/11/12 11:05:55;;;;;;;4.43;1.40;;;9.10;93.30;;;;;;4984669;28;20065;-93
2022/11/12 11:08:48;;;;;;;3.45;1.50;;;9.20;93.20;;;;;;4988873;28;20065;-91
2022/11/12 11:11:34;;;;;;;2.38;1.38;;;9.20;93.20;;;;;;5010514;28;20061;-83
2022/11/12 11:14:31;;;;;;;2.92;1.40;;;9.30;93.30;;;;;;4969066;28;20053;-83
2022/11/12 11:17:18;;;;;;;2.58;1.42;;;9.30;93.20;;;;;;4997838;28;20527;-85
2022/11/12 11:20:12;;;;;;;2.75;1.48;;;9.30;93.20;;;;;;4951269;28;20469;-83
2022/11/12 11:23:23;;;;;;;2.20;1.35;;;9.40;93.30;;;;;;4964333;28;20071;-90
2022/11/12 11:26:24;;;;;;;2.80;1.58;;;9.50;93.20;;;;;;4992079;28;20581;-88
2022/11/12 11:29:28;;;;;;;2.65;1.50;;;9.60;93.20;;;;;;4983873;28;20061;-91
2022/11/12 11:32:27;;;;;;;3.17;1.40;;;9.70;93.10;;;;;;4987531;28;20451;-88
2022/11/12 11:35:56;;;;;;;3.47;1.70;;;9.80;93.00;;;;;;4987928;28;20053;-87
2022/11/12 11:39:15;;;;;;;2.17;1.30;;;9.80;93.00;;;;;;4996676;28;20506;-88
2022/11/12 11:42:34;;;;;;;2.80;1.35;;;9.90;93.00;;;;;;4964332;28;20058;-90
2022/11/12 11:45:45;;;;;;;4.05;1.63;;;9.90;93.00;;;;;;4983507;28;20061;-90
2022/11/12 11:48:51;;;;;;;3.38;1.77;;;10.00;93.00;;;;;;4993539;28;20057;-90
2022/11/12 11:51:44;;;;;;;4.20;1.30;;;10.10;92.90;;;;;;4998281;28;20048;-89
2022/11/12 11:54:58;;;;;;;4.72;1.48;;;10.20;92.90;;;;;;4996684;28;20053;-90
2022/11/12 11:57:59;;;;;;;3.78;1.40;;;10.30;92.90;;;;;;4963202;28;20050;-83
2022/11/12 12:01:10;;;;;;;3.45;1.58;;;10.30;92.80;;;;;;4995902;28;20053;-83
2022/11/12 12:04:17;;;;;;;2.90;1.30;;;10.40;92.90;;;;;;4981422;28;20394;-82
2022/11/12 12:07:28;;;;;;;2.50;1.23;;;10.40;92.90;;;;;;4986728;28;20049;-83
2022/11/12 12:10:23;;;;;;;2.15;1.20;;;10.40;92.90;;;;;;4985262;28;20530;-82
2022/11/12 12:13:54;;;;;;;2.38;1.35;;;10.50;92.90;;;;;;4973047;28;20050;-83
2022/11/12 12:16:51;;;;;;;2.33;1.20;;;10.60;92.80;;;;;;4970104;28;20164;-82
2022/11/12 12:19:53;;;;;;;3.45;1.60;;;10.60;92.80;;;;;;4981479;28;20529;-81
2022/11/12 12:23:09;;;;;;;3.22;1.38;;;10.70;92.70;;;;;;4989075;28;20057;-81
2022/11/12 12:25:58;;;;;;;3.17;1.38;;;10.90;92.60;;;;;;4976818;28;20061;-83
2022/11/12 12:28:48;;;;;;;3.00;1.25;;;10.90;92.50;;;;;;4983308;28;20189;-82
2022/11/12 12:31:43;;;;;;;3.38;1.63;;;10.90;92.60;;;;;;4981129;28;20112;-83
2022/11/12 12:34:30;;;;;;;2.35;1.25;;;10.90;92.60;;;;;;4995675;28;20104;-83
2022/11/12 12:37:33;;;;;;;3.30;1.30;;;10.90;92.70;;;;;;4981166;28;20057;-84
2022/11/12 12:40:30;;;;;;;3.17;1.45;;;11.00;92.60;;;;;;4981320;28;20081;-84
2022/11/12 12:43:37;;;;;;;2.83;1.33;;;11.00;92.60;;;;;;4995490;28;20060;-90
2022/11/12 12:46:26;;;;;;;2.55;1.38;;;11.10;92.60;;;;;;4972366;28;20057;-87
2022/11/12 12:49:19;;;;;;;3.08;1.60;;;11.10;92.70;;;;;;4968230;28;20153;-90
2022/11/12 12:52:05;;;;;;;;;;;11.10;92.70;;;;;;4982463;28;20422;-88
2022/11/12 12:54:50;;;;;;;2.42;1.15;;;11.10;92.70;;;;;;4981744;28;19928;-86
2022/11/12 12:57:39;;;;;;;3.08;1.25;;;11.10;92.70;;;;;;4982104;28;20069;-86
2022/11/12 13:00:37;;;;;;;2.40;1.33;;;11.20;92.60;;;;;;4968078;28;20052;-86
2022/11/12 13:03:44;;;;;;;3.53;1.70;;;11.20;92.60;;;;;;4975903;28;20190;-85
2022/11/12 13:06:34;;;;;;;3.22;1.70;;;11.30;92.60;;;;;;4962391;28;20468;-88
2022/11/12 13:09:23;;;;;;;3.88;2.10;;;11.30;92.60;;;;;;4974156;28;20061;-89
2022/11/12 13:15:14;;;;;;;3.60;1.85;;;11.50;92.50;;;;;;4979958;28;20058;-87
2022/11/12 13:18:00;;;;;;;3.58;1.48;;;11.50;92.40;;;;;;4976600;28;20065;-88
2022/11/12 13:21:16;;;;;;;3.22;1.67;;;11.50;92.50;;;;;;4948532;28;20049;-86
2022/11/12 13:24:05;;;;;;;3.72;1.83;;;11.60;92.40;;;;;;4953672;28;20050;-90
2022/11/12 13:26:59;;;;;;;2.80;1.42;;;11.60;92.50;;;;;;4963604;28;20105;-93
2022/11/12 13:29:46;;;;;;;3.10;1.70;;;11.60;92.50;;;;;;4962555;28;20148;-90
2022/11/12 13:32:33;;;;;;;3.10;1.70;;;11.60;92.50;;;;;;4960283;28;20073;-89
2022/11/12 13:35:23;;;;;;;3.15;1.55;;;11.60;92.50;;;;;;4959051;29;20090;-90
2022/11/12 13:38:16;;;;;;;3.10;1.45;;;11.60;92.50;;;;;;4963112;28;20049;-85
2022/11/12 13:41:15;;;;;;;3.00;1.52;;;11.60;92.50;;;;;;4958773;28;20061;-85
2022/11/12 13:44:06;;;;;;;2.60;1.45;;;11.60;92.50;;;;;;4960570;28;20054;-84
2022/11/12 13:46:54;;;;;;;3.40;1.85;;;11.60;92.60;;;;;;4971656;28;20623;-87
2022/11/12 13:49:42;;;;;;;3.00;1.83;;;11.60;92.60;;;;;;4948273;28;20582;-86
2022/11/12 13:52:28;;;;;;;3.80;2.22;;;11.60;92.60;;;;;;4961711;28;20168;-85
2022/11/12 13:55:20;;;;;;;4.75;2.50;;;11.60;92.60;;;;;;4960935;28;20522;-84
2022/11/12 13:58:18;;;;;;;3.90;2.20;;;11.60;92.60;;;;;;4950669;28;20097;-84
2022/11/12 14:01:05;;;;;;;3.38;1.58;;;11.60;92.60;;;;;;4963690;28;20057;-85
2022/11/12 14:03:53;;;;;;;3.65;1.98;;;11.60;92.60;;;;;;4947856;28;20046;-87
2022/11/12 14:06:53;;;;;;;5.22;2.17;;;11.60;92.70;;;;;;4929011;29;20078;-87
2022/11/12 14:10:10;;;;;;;4.63;2.70;;;11.60;92.60;;;;;;4953012;28;20578;-89
2022/11/12 14:13:19;;;;;;;3.10;1.83;;;11.60;92.70;;;;;;4963143;28;20061;-88
2022/11/12 14:16:18;;;;;;;3.22;1.67;;;11.60;92.60;;;;;;4964799;28;20062;-88
2022/11/12 14:19:31;;;;;;;3.08;1.80;;;11.70;92.70;;;;;;4979448;28;20057;-88
2022/11/12 14:22:19;;;;;;;3.22;1.80;;;11.70;92.60;;;;;;4980193;28;20050;-89
2022/11/12 14:25:24;;;;;;;3.38;1.98;;;11.70;92.70;;;;;;4973877;28;20057;-89
2022/11/12 14:28:30;;;;;;;5.25;2.03;;;11.70;92.70;;;;;;4965784;28;20069;-88
2022/11/12 14:31:23;;;;;;;3.60;2.15;;;11.70;92.70;;;;;;4966579;28;20061;-85
2022/11/12 14:34:31;;;;;;;3.88;1.90;;;11.70;92.70;;;;;;4979642;28;20053;-91
2022/11/12 14:37:37;;;;;;;3.83;2.00;;;11.60;92.70;;;;;;4974382;28;20080;-87
2022/11/12 14:40:30;;;;;;;3.40;1.95;;;11.60;92.80;;;;;;4955407;29;20057;-88
2022/11/12 14:43:43;;;;;;;3.72;1.95;;;11.60;92.80;;;;;;4941392;29;20062;-87
2022/11/12 14:46:36;;;;;;;3.37;1.80;;;11.70;92.80;;;;;;4965432;28;20156;-86
2022/11/12 14:49:34;;;;;;;4.35;2.20;;;11.60;92.80;;;;;;4955270;28;20174;-89
2022/11/12 14:52:50;;;;;;;3.22;1.60;;;11.60;92.90;;;;;;4956520;28;20053;-96
2022/11/12 14:55:39;;;;;;;3.35;1.63;;;11.60;92.80;;;;;;4975129;28;20049;-92
2022/11/12 14:58:26;;;;;;;2.95;1.42;;;11.60;92.90;;;;;;4961286;28;20070;-89
2022/11/12 15:01:28;;;;;;;1.98;1.10;;;11.50;92.90;;;;;;4935534;28;20057;-88
2022/11/12 15:04:49;;;;;;;2.97;1.30;;;11.60;93.00;;;;;;4974835;28;20092;-87
2022/11/12 15:07:55;;;;;;;4.07;1.70;;;11.50;93.00;;;;;;4974235;28;20109;-89
2022/11/12 15:10:44;;;;;;;2.58;1.27;;;11.50;93.00;;;;;;4974594;28;20066;-89
2022/11/12 15:13:38;;;;;;;2.83;1.40;;;11.50;93.00;;;;;;4968468;28;20057;-88
2022/11/12 15:16:34;;;;;;;4.28;1.33;;;11.40;93.10;;;;;;5008942;28;20053;-88
2022/11/12 15:19:23;;;;;;;1.90;0.88;;;11.40;93.10;;;;;;4982126;28;20104;-88
2022/11/12 15:22:19;;;;;;;2.40;1.13;;;11.40;93.10;;;;;;4979778;28;20399;-87
2022/11/12 15:25:26;;;;;;;2.60;1.30;;;11.40;93.10;;;;;;4976244;28;20088;-94
2022/11/12 15:28:23;;;;;;;3.20;1.23;;;11.30;93.10;;;;;;4982222;28;20053;-84
2022/11/12 15:31:18;;;;;;;2.58;1.48;;;11.30;93.10;;;;;;4979648;28;20052;-86
2022/11/12 15:34:31;;;;;;;3.22;1.20;;;11.30;93.20;;;;;;4979304;28;20054;-91